createdAt,value
2019-01-02T00:00:22.518Z,97252.55
2019-01-02T00:02:52.003Z,97268.12
2019-01-02T00:05:21.504Z,97287.48
2019-01-02T00:07:50.982Z,97303.91
2019-01-02T00:10:20.730Z,97286.05
2019-01-02T00:12:50.216Z,97284.52
2019-01-02T00:15:20.167Z,97291.08
2019-01-02T00:20:24.573Z,97269.84
2019-01-02T00:22:54.207Z,97274.67
2019-01-02T00:25:23.680Z,97269.38
2019-01-02T00:27:53.524Z,97257.20
2019-01-02T00:30:23.033Z,97241.95
2019-01-02T00:32:52.883Z,97257.73
2019-01-02T00:35:22.373Z,97245.94
2019-01-02T00:37:52.229Z,97257.03
2019-01-02T00:40:21.720Z,97261.80
2019-01-02T00:42:51.692Z,97262.41
2019-01-02T00:45:22.369Z,97258.63
2019-01-02T00:47:52.371Z,97244.52
2019-01-02T00:50:21.864Z,97231.44
2019-01-02T00:52:51.330Z,97261.85
2019-01-02T00:55:20.842Z,97252.41
2019-01-02T00:57:50.306Z,97244.27
2019-01-02T01:00:22.027Z,97249.30
2019-01-02T01:02:51.940Z,97245.50
2019-01-02T01:05:21.570Z,97250.78
2019-01-02T01:07:51.082Z,97269.38
2019-01-02T01:10:20.650Z,97272.89
2019-01-02T01:12:50.166Z,97277.02
2019-01-02T01:15:19.627Z,97283.16
2019-01-02T01:17:49.109Z,97284.12
2019-01-02T01:20:18.998Z,97277.40
2019-01-02T01:22:48.465Z,97288.94
2019-01-02T01:25:18.046Z,97318.20
2019-01-02T01:27:47.549Z,97327.92
2019-01-02T01:30:17.618Z,97355.59
2019-01-02T01:32:47.414Z,97349.20
2019-01-02T01:35:16.885Z,97319.57
2019-01-02T01:37:47.630Z,97350.33
2019-01-02T01:40:17.137Z,97354.50
2019-01-02T01:42:46.610Z,97349.91
2019-01-02T01:45:16.493Z,97354.74
2019-01-02T01:47:46.019Z,97344.90
2019-01-02T01:50:15.939Z,97355.89
2019-01-02T01:52:45.479Z,97341.34
2019-01-02T01:55:14.917Z,97335.92
2019-01-02T01:57:44.786Z,97348.98
2019-01-02T02:00:16.958Z,97346.03
2019-01-02T02:02:46.460Z,97345.81
2019-01-02T02:05:15.963Z,97342.17
2019-01-02T02:07:45.430Z,97332.23
2019-01-02T02:10:16.816Z,97340.91
2019-01-02T02:12:46.292Z,97331.33
2019-01-02T02:15:15.750Z,97322.66
2019-01-02T02:17:45.526Z,97304.33
2019-01-02T02:20:15.085Z,97311.46
2019-01-02T02:22:44.620Z,97303.64
2019-01-02T02:25:17.397Z,97298.17
2019-01-02T02:27:46.864Z,97297.20
2019-01-02T02:30:16.826Z,97303.64
2019-01-02T02:32:46.678Z,97292.98
2019-01-02T02:35:16.680Z,97280.36
2019-01-02T02:37:46.141Z,97267.22
2019-01-02T02:40:16.104Z,97279.70
2019-01-02T02:42:45.600Z,97285.41
2019-01-02T02:45:15.470Z,97279.44
2019-01-02T02:47:45.688Z,97284.95
2019-01-02T02:50:16.137Z,97277.88
2019-01-02T02:52:45.974Z,97261.45
2019-01-02T02:55:19.163Z,97261.55
2019-01-02T02:57:48.654Z,97255.34
2019-01-02T03:00:18.463Z,97253.09
2019-01-02T03:02:47.967Z,97250.28
2019-01-02T03:05:18.066Z,97276.59
2019-01-02T03:07:47.811Z,97288.88
2019-01-02T03:10:17.976Z,97292.11
2019-01-02T03:12:47.816Z,97308.51
2019-01-02T03:15:17.773Z,97305.88
2019-01-02T03:17:47.240Z,97312.22
2019-01-02T03:20:17.206Z,97309.56
2019-01-02T03:22:46.688Z,97324.55
2019-01-02T03:25:16.533Z,97317.11
2019-01-02T03:27:46.262Z,97323.45
2019-01-02T03:30:18.118Z,97314.46
2019-01-02T03:32:47.950Z,97329.39
2019-01-02T03:35:17.830Z,97327.33
2019-01-02T03:37:47.288Z,97327.83
2019-01-02T03:40:16.755Z,97339.70
2019-01-02T03:42:46.239Z,97337.55
2019-01-02T03:45:18.614Z,97338.58
2019-01-02T03:47:48.110Z,97351.84
2019-01-02T03:50:19.940Z,97369.56
2019-01-02T03:52:49.407Z,97363.83
2019-01-02T03:55:18.904Z,97367.98
2019-01-02T03:57:48.366Z,97358.28
2019-01-02T04:00:20.177Z,97345.64
2019-01-02T04:02:49.570Z,97344.53
2019-01-02T04:05:22.631Z,97381.14
2019-01-02T04:07:56.986Z,97370.13
2019-01-02T04:10:26.488Z,97382.17
2019-01-02T04:12:55.988Z,97400.95
2019-01-02T04:15:25.727Z,97411.39
2019-01-02T04:17:55.182Z,97397.32
2019-01-02T04:20:24.684Z,97405.42
2019-01-02T04:22:54.191Z,97424.86
2019-01-02T04:25:23.689Z,97429.43
2019-01-02T04:27:53.161Z,97436.75
2019-01-02T04:30:22.627Z,97444.73
2019-01-02T04:32:52.108Z,97461.79
2019-01-02T04:35:21.571Z,97452.71
2019-01-02T04:37:51.058Z,97450.92
2019-01-02T04:40:20.514Z,97470.33
2019-01-02T04:42:49.986Z,97468.02
2019-01-02T04:45:19.475Z,97470.16
2019-01-02T04:47:48.958Z,97449.02
2019-01-02T04:50:18.450Z,97473.88
2019-01-02T04:52:47.948Z,97460.66
2019-01-02T04:55:17.418Z,97454.44
2019-01-02T04:57:46.917Z,97450.25
2019-01-02T05:00:17.682Z,97446.10
2019-01-02T05:02:47.176Z,97441.83
2019-01-02T05:05:16.639Z,97434.62
2019-01-02T05:07:46.107Z,97422.89
2019-01-02T05:10:15.588Z,97424.14
2019-01-02T05:12:45.053Z,97429.86
2019-01-02T05:15:14.552Z,97444.13
2019-01-02T05:17:44.029Z,97442.86
2019-01-02T05:20:15.013Z,97438.03
2019-01-02T05:22:44.486Z,97434.17
2019-01-02T05:25:13.942Z,97445.81
2019-01-02T05:27:43.403Z,97454.82
2019-01-02T05:30:16.100Z,97467.53
2019-01-02T05:32:45.560Z,97459.52
2019-01-02T05:35:15.053Z,97460.20
2019-01-02T05:37:44.547Z,97465.98
2019-01-02T05:40:17.218Z,97463.91
2019-01-02T05:42:46.714Z,97463.98
2019-01-02T05:45:16.174Z,97464.00
2019-01-02T05:47:45.674Z,97456.08
2019-01-02T05:50:15.144Z,97457.40
2019-01-02T05:52:44.603Z,97463.52
2019-01-02T05:55:14.101Z,97465.58
2019-01-02T05:57:43.553Z,97466.55
2019-01-02T06:00:14.178Z,97466.00
2019-01-02T06:02:43.646Z,97467.78
2019-01-02T06:05:13.125Z,97462.27
2019-01-02T06:07:42.612Z,97464.20
2019-01-02T06:10:13.577Z,97461.64
2019-01-02T06:12:43.090Z,97479.19
2019-01-02T06:15:14.154Z,97485.19
2019-01-02T06:17:43.640Z,97486.96
2019-01-02T06:20:15.430Z,97488.45
2019-01-02T06:22:44.890Z,97495.67
2019-01-02T06:25:14.357Z,97502.23
2019-01-02T06:27:43.896Z,97503.50
2019-01-02T06:30:13.576Z,97501.02
2019-01-02T06:32:43.044Z,97510.86
2019-01-02T06:35:12.543Z,97505.11
2019-01-02T06:37:42.008Z,97517.34
2019-01-02T06:40:11.972Z,97509.70
2019-01-02T06:42:41.470Z,97535.48
2019-01-02T06:45:12.934Z,97514.58
2019-01-02T06:47:42.462Z,97524.17
2019-01-02T06:50:21.193Z,97520.20
2019-01-02T06:52:50.685Z,97529.19
2019-01-02T06:55:20.154Z,97534.83
2019-01-02T06:57:49.626Z,97530.59
2019-01-02T07:00:25.985Z,97528.55
2019-01-02T07:02:55.507Z,97532.98
2019-01-02T07:05:25.001Z,97538.60
2019-01-02T07:07:54.457Z,97534.14
2019-01-02T07:10:24.116Z,97517.88
2019-01-02T07:12:53.612Z,97509.22
2019-01-02T07:15:23.649Z,97507.66
2019-01-02T07:17:53.256Z,97504.67
2019-01-02T07:20:22.712Z,97512.36
2019-01-02T07:22:52.830Z,97513.40
2019-01-02T07:25:22.337Z,97512.45
2019-01-02T07:27:51.905Z,97514.94
2019-01-02T07:30:33.472Z,97524.52
2019-01-02T07:33:02.933Z,97519.30
2019-01-02T07:36:01.019Z,97523.78
2019-01-02T07:38:53.213Z,97525.84
2019-01-02T07:41:39.462Z,97527.06
2019-01-02T07:44:33.865Z,97521.34
2019-01-02T07:47:27.693Z,97526.38
2019-01-02T07:50:30.546Z,97533.19
2019-01-02T07:53:39.312Z,97529.77
2019-01-02T07:56:41.360Z,97530.27
2019-01-02T07:59:15.783Z,97519.27
2019-01-02T08:02:11.154Z,97528.67
2019-01-02T08:05:00.219Z,97516.25
2019-01-02T08:07:45.889Z,97511.81
2019-01-02T08:10:48.756Z,97506.71
2019-01-02T08:14:01.646Z,97500.41
2019-01-02T08:16:38.888Z,97487.78
2019-01-02T08:19:24.783Z,97487.43
2019-01-02T08:22:24.508Z,97493.28
2019-01-02T08:25:07.716Z,97488.56
2019-01-02T08:28:06.042Z,97481.00
2019-01-02T08:31:15.893Z,97487.46
2019-01-02T08:34:24.729Z,97487.17
2019-01-02T08:37:04.779Z,97482.84
2019-01-02T08:40:02.367Z,97487.98
2019-01-02T08:42:44.367Z,97485.89
2019-01-02T08:45:45.133Z,97481.70
2019-01-02T08:48:39.969Z,97487.37
2019-01-02T08:51:49.999Z,97474.86
2019-01-02T08:54:51.791Z,97477.53
2019-01-02T08:57:48.348Z,97476.36
2019-01-02T09:00:22.564Z,97471.03
2019-01-02T09:03:08.551Z,97476.18
2019-01-02T09:05:51.443Z,97486.67
2019-01-02T09:08:51.104Z,97485.19
2019-01-02T09:11:27.819Z,97491.20
2019-01-02T09:14:26.068Z,97484.29
2019-01-02T09:17:09.343Z,97505.36
2019-01-02T09:20:01.637Z,97496.09
2019-01-02T09:22:41.754Z,97497.63
2019-01-02T09:25:58.383Z,97506.28
2019-01-02T09:29:09.078Z,97512.44
2019-01-02T09:32:14.887Z,97514.22
2019-01-02T09:35:14.101Z,97512.06
2019-01-02T09:38:20.038Z,97527.22
2019-01-02T09:40:54.188Z,97526.24
2019-01-02T09:43:49.105Z,97530.77
2019-01-02T09:46:45.930Z,97526.86
2019-01-02T09:49:39.147Z,97543.18
2019-01-02T09:52:28.281Z,97541.36
2019-01-02T09:55:14.586Z,97551.14
2019-01-02T09:58:29.619Z,97558.81
2019-01-02T10:01:12.756Z,97556.42
2019-01-02T10:03:55.950Z,97558.10
2019-01-02T10:06:54.240Z,97549.06
2019-01-02T10:10:01.727Z,97555.97
2019-01-02T10:12:51.119Z,97560.67
2019-01-02T10:15:31.100Z,97561.20
2019-01-02T10:18:05.255Z,97563.61
2019-01-02T10:20:44.034Z,97586.18
2019-01-02T10:23:27.135Z,97597.69
2019-01-02T10:26:10.103Z,97621.53
2019-01-02T10:28:52.554Z,97632.01
2019-01-02T10:31:44.416Z,97635.31
2019-01-02T10:34:27.217Z,97648.38
2019-01-02T10:37:34.734Z,97656.50
2019-01-02T10:40:30.062Z,97658.97
2019-01-02T10:43:16.268Z,97651.52
2019-01-02T10:46:09.669Z,97651.01
2019-01-02T10:49:12.344Z,97658.64
2019-01-02T10:52:19.939Z,97652.13
2019-01-02T10:55:08.716Z,97635.02
2019-01-02T10:58:00.916Z,97630.33
2019-01-02T11:00:54.867Z,97626.03
2019-01-02T11:03:43.894Z,97623.27
2019-01-02T11:06:37.398Z,97630.33
2019-01-02T11:09:20.054Z,97627.41
2019-01-02T11:11:58.361Z,97628.46
2019-01-02T11:15:05.120Z,97616.17
2019-01-02T11:18:06.248Z,97627.83
2019-01-02T11:20:49.519Z,97630.81
2019-01-02T11:23:49.242Z,97619.27
2019-01-02T11:27:07.299Z,97619.03
2019-01-02T11:30:14.859Z,97622.30
2019-01-02T11:32:54.572Z,97615.53
2019-01-02T11:36:06.234Z,97616.71
2019-01-02T11:39:07.675Z,97613.03
2019-01-02T11:41:42.005Z,97618.38
2019-01-02T11:44:28.154Z,97601.95
2019-01-02T11:46:57.659Z,97601.08
2019-01-02T11:49:27.113Z,97606.41
2019-01-02T11:51:56.580Z,97616.81
2019-01-02T11:54:26.248Z,97595.97
2019-01-02T11:56:55.741Z,97597.76
2019-01-02T11:59:25.236Z,97596.77
2019-01-02T12:01:54.657Z,97604.10
2019-01-02T12:04:24.156Z,97617.09
2019-01-02T12:06:53.623Z,97620.66
2019-01-02T12:09:23.155Z,97626.11
2019-01-02T12:11:52.625Z,97638.70
2019-01-02T12:14:22.171Z,97632.83
2019-01-02T12:16:51.682Z,97628.22
2019-01-02T12:19:21.721Z,97620.19
2019-01-02T12:21:51.183Z,97632.79
2019-01-02T12:24:20.693Z,97634.55
2019-01-02T12:26:50.134Z,97632.72
2019-01-02T12:29:19.617Z,97639.80
2019-01-02T12:31:55.276Z,97633.98
2019-01-02T12:34:24.739Z,97633.91
2019-01-02T12:36:54.342Z,97632.84
2019-01-02T12:39:23.835Z,97630.97
2019-01-02T12:41:53.410Z,97623.94
2019-01-02T12:44:23.035Z,97614.92
2019-01-02T12:46:52.526Z,97635.00
2019-01-02T12:49:22.001Z,97611.11
2019-01-02T12:51:51.821Z,97623.50
2019-01-02T12:54:21.303Z,97609.70
2019-01-02T12:56:50.784Z,97612.20
2019-01-02T12:59:25.664Z,97622.84
2019-01-02T13:02:05.292Z,97623.94
2019-01-02T13:04:45.110Z,97630.27
2019-01-02T13:07:57.235Z,97630.92
2019-01-02T13:10:34.389Z,97635.84
2019-01-02T13:13:13.957Z,97612.94
2019-01-02T13:15:57.172Z,97640.84
2019-01-02T13:18:42.955Z,97641.98
2019-01-02T13:21:34.469Z,97632.61
2019-01-02T13:24:22.861Z,97650.84
2019-01-02T13:26:57.040Z,97653.63
2019-01-02T13:29:48.939Z,97656.13
2019-01-02T13:32:46.658Z,97657.05
2019-01-02T13:35:39.121Z,97650.50
2019-01-02T13:38:16.817Z,97673.73
2019-01-02T13:40:53.686Z,97664.22
2019-01-02T13:43:45.584Z,97672.08
2019-01-02T13:46:39.465Z,97672.72
2019-01-02T13:49:37.924Z,97668.91
2019-01-02T13:52:07.387Z,97672.04
2019-01-02T13:54:36.867Z,97680.00
2019-01-02T13:57:06.334Z,97678.61
2019-01-02T13:59:35.894Z,97680.05
2019-01-02T14:02:05.347Z,97680.28
2019-01-02T14:04:36.013Z,97683.67
2019-01-02T14:07:05.490Z,97686.52
2019-01-02T14:09:34.964Z,97694.34
2019-01-02T14:12:04.467Z,97699.50
2019-01-02T14:14:34.097Z,97714.91
2019-01-02T14:17:03.685Z,97716.50
2019-01-02T14:19:33.160Z,97727.64
2019-01-02T14:22:02.630Z,97726.28
2019-01-02T14:24:32.095Z,97721.58
2019-01-02T14:27:01.556Z,97721.31
2019-01-02T14:29:31.055Z,97716.55
2019-01-02T14:32:00.525Z,97707.37
2019-01-02T14:34:30.000Z,97687.45
2019-01-02T14:36:59.492Z,97684.28
2019-01-02T14:39:28.963Z,97694.55
2019-01-02T14:41:58.566Z,97702.08
2019-01-02T14:44:28.056Z,97706.55
2019-01-02T14:46:57.446Z,97723.66
2019-01-02T14:49:26.866Z,97723.81
2019-01-02T14:51:56.355Z,97688.27
2019-01-02T14:54:25.825Z,97694.86
2019-01-02T14:56:55.328Z,97703.61
2019-01-02T14:59:24.798Z,97704.08
2019-01-02T15:01:54.283Z,97698.00
2019-01-02T15:04:23.682Z,97707.59
2019-01-02T15:06:53.157Z,97719.56
2019-01-02T15:09:22.645Z,97717.66
2019-01-02T15:11:52.160Z,97712.84
2019-01-02T15:14:21.759Z,97710.50
2019-01-02T15:16:51.306Z,97699.50
2019-01-02T15:19:20.783Z,97698.80
2019-01-02T15:21:50.277Z,97701.58
2019-01-02T15:24:19.744Z,97700.41
2019-01-02T15:26:49.250Z,97698.67
2019-01-02T15:29:18.733Z,97695.53
2019-01-02T15:31:48.179Z,97699.17
2019-01-02T15:34:17.748Z,97695.95
2019-01-02T15:36:47.215Z,97699.14
2019-01-02T15:39:16.715Z,97693.66
2019-01-02T15:41:46.216Z,97690.23
2019-01-02T15:44:15.732Z,97693.03
2019-01-02T15:46:45.235Z,97678.66
2019-01-02T15:49:14.693Z,97683.03
2019-01-02T15:51:44.187Z,97691.37
2019-01-02T15:54:13.784Z,97702.30
2019-01-02T15:56:43.274Z,97716.70
2019-01-02T15:59:12.754Z,97719.83
2019-01-02T16:01:42.227Z,97721.84
2019-01-02T16:04:11.730Z,97737.22
2019-01-02T16:06:41.210Z,97741.55
2019-01-02T16:09:10.676Z,97746.52
2019-01-02T16:11:40.163Z,97747.53
2019-01-02T16:14:09.635Z,97757.70
2019-01-02T16:16:39.225Z,97757.87
2019-01-02T16:19:08.712Z,97761.05
2019-01-02T16:21:38.187Z,97766.55
2019-01-02T16:24:07.692Z,97770.31
2019-01-02T16:26:37.165Z,97780.19
2019-01-02T16:29:06.744Z,97785.72
2019-01-02T16:31:36.243Z,97781.83
2019-01-02T16:34:05.702Z,97780.38
2019-01-02T16:36:35.247Z,97786.56
2019-01-02T16:39:07.349Z,97789.02
2019-01-02T16:41:36.916Z,97789.97
2019-01-02T16:44:06.412Z,97789.13
2019-01-02T16:46:35.966Z,97790.37
2019-01-02T16:49:05.644Z,97797.76
2019-01-02T16:51:35.123Z,97802.48
2019-01-02T16:54:04.694Z,97798.44
2019-01-02T16:56:34.171Z,97799.77
2019-01-02T16:59:03.643Z,97798.72
2019-01-02T17:01:33.139Z,97810.19
2019-01-02T17:04:02.603Z,97813.76
2019-01-02T17:06:32.093Z,97819.28
2019-01-02T17:09:01.577Z,97828.63
2019-01-02T17:11:31.080Z,97828.83
2019-01-02T17:14:00.530Z,97831.52
2019-01-02T17:16:30.075Z,97838.69
2019-01-02T17:18:59.526Z,97852.31
2019-01-02T17:21:28.980Z,97859.85
2019-01-02T17:23:58.452Z,97863.52
2019-01-02T17:26:27.956Z,97864.41
2019-01-02T17:28:57.426Z,97859.70
2019-01-02T17:31:26.826Z,97866.34
2019-01-02T17:33:56.324Z,97858.61
2019-01-02T17:36:25.722Z,97863.86
2019-01-02T17:38:55.207Z,97852.92
2019-01-02T17:41:24.679Z,97866.69
2019-01-02T17:43:54.184Z,97865.66
2019-01-02T17:46:23.651Z,97874.09
2019-01-02T17:48:53.141Z,97872.20
2019-01-02T17:51:22.640Z,97878.45
2019-01-02T17:53:52.139Z,97873.63
2019-01-02T17:56:21.612Z,97876.45
2019-01-02T17:58:51.120Z,97871.45
2019-01-02T18:01:20.588Z,97882.20
2019-01-02T18:03:50.053Z,97884.94
2019-01-02T18:06:19.593Z,97882.92
2019-01-02T18:08:49.101Z,97880.88
2019-01-02T18:11:18.573Z,97891.02
2019-01-02T18:13:48.037Z,97890.05
2019-01-02T18:16:17.500Z,97893.09
2019-01-02T18:18:46.989Z,97902.42
2019-01-02T18:21:16.465Z,97902.84
2019-01-02T18:23:45.965Z,97903.48
2019-01-02T18:26:15.463Z,97909.44
2019-01-02T18:28:44.939Z,97912.58
2019-01-02T18:31:14.435Z,97917.83
2019-01-02T18:33:43.906Z,97910.36
2019-01-02T18:36:13.376Z,97916.98
2019-01-02T18:38:42.884Z,97928.30
2019-01-02T18:41:12.342Z,97929.06
2019-01-02T18:43:41.830Z,97928.95
2019-01-02T18:46:11.323Z,97931.45
2019-01-02T18:48:40.783Z,97940.92
2019-01-02T18:51:10.294Z,97942.53
2019-01-02T18:53:39.724Z,97941.25
2019-01-02T18:56:09.198Z,97946.61
2019-01-02T18:58:59.583Z,97951.44
2019-01-02T19:01:29.042Z,97957.84
2019-01-02T19:03:58.543Z,97963.94
2019-01-02T19:06:28.021Z,97960.58
2019-01-02T19:08:57.502Z,97965.72
2019-01-02T19:11:27.036Z,97980.48
2019-01-02T19:13:56.478Z,97991.64
2019-01-02T19:16:25.952Z,97994.63
2019-01-02T19:18:55.436Z,97989.67
2019-01-02T19:21:24.902Z,97997.47
2019-01-02T19:23:54.374Z,97990.44
2019-01-02T19:26:23.870Z,98003.95
2019-01-02T19:28:53.340Z,98002.59
2019-01-02T19:31:22.837Z,98003.41
2019-01-02T19:33:52.309Z,98006.54
2019-01-02T19:36:21.791Z,98008.78
2019-01-02T19:38:51.399Z,98012.12
2019-01-02T19:41:20.965Z,98017.97
2019-01-02T19:43:50.474Z,98022.00
2019-01-02T19:46:19.935Z,98019.97
2019-01-02T19:48:49.400Z,98026.75
2019-01-02T19:51:18.923Z,98026.64
2019-01-02T19:53:48.478Z,98031.45
2019-01-02T19:56:18.050Z,98041.86
2019-01-02T19:58:47.679Z,98041.38
2019-01-02T20:01:17.152Z,98042.23
2019-01-02T20:03:46.632Z,98045.23
2019-01-02T20:06:16.146Z,98045.94
2019-01-02T20:08:45.622Z,98054.22
2019-01-02T20:11:15.083Z,98064.34
2019-01-02T20:13:44.590Z,98066.70
2019-01-02T20:16:14.248Z,98067.42
2019-01-02T20:18:43.709Z,98049.80
2019-01-02T20:21:13.635Z,98054.47
2019-01-02T20:23:43.114Z,98051.50
2019-01-02T20:26:12.591Z,98058.88
2019-01-02T20:28:42.213Z,98063.70
2019-01-02T20:31:11.691Z,98058.48
2019-01-02T20:33:41.185Z,98054.87
2019-01-02T20:36:12.485Z,98051.21
2019-01-02T20:38:41.940Z,98050.94
2019-01-02T20:41:11.928Z,98050.05
2019-01-02T20:43:41.511Z,98049.23
2019-01-02T20:46:10.982Z,98048.16
2019-01-02T20:48:40.492Z,98050.47
2019-01-02T20:51:09.989Z,98056.42
2019-01-02T20:53:39.553Z,98052.55
2019-01-02T20:56:09.040Z,98055.50
2019-01-02T20:58:38.516Z,98058.67
2019-01-02T21:01:08.020Z,98064.62
2019-01-02T21:03:37.631Z,98065.65
2019-01-02T21:06:07.065Z,98071.73
2019-01-02T21:08:36.601Z,98071.25
2019-01-02T21:11:06.065Z,98076.34
2019-01-02T21:13:35.530Z,98074.40
2019-01-02T21:16:05.036Z,98071.34
2019-01-02T21:18:34.529Z,98071.84
2019-01-02T21:21:03.993Z,98082.52
2019-01-02T21:23:33.472Z,98078.17
2019-01-02T21:26:02.936Z,98091.06
2019-01-02T21:28:32.406Z,98094.36
2019-01-02T21:31:01.906Z,98101.02
2019-01-02T21:33:31.365Z,98087.32
2019-01-02T21:36:00.832Z,98092.31
2019-01-02T21:38:30.320Z,98091.53
2019-01-02T21:40:59.790Z,98104.78
2019-01-02T21:43:29.263Z,98108.88
2019-01-02T21:45:58.674Z,98115.67
2019-01-02T21:48:47.138Z,98117.53
2019-01-02T21:51:16.633Z,98120.86
2019-01-02T21:53:46.384Z,98126.73
2019-01-02T21:56:15.849Z,98126.81
2019-01-02T21:58:45.349Z,98126.33
2019-01-02T22:01:14.868Z,98123.68
2019-01-02T22:03:44.378Z,98129.41
2019-01-02T22:06:14.221Z,98118.01
2019-01-02T22:08:43.678Z,98143.02
2019-01-02T22:11:13.183Z,98132.39
2019-01-02T22:13:42.643Z,98138.81
2019-01-02T22:16:12.110Z,98148.13
2019-01-02T22:18:41.607Z,98139.30
2019-01-02T22:21:11.086Z,98139.02
2019-01-02T22:23:40.589Z,98137.25
2019-01-02T22:26:10.055Z,98130.33
2019-01-02T22:28:39.534Z,98129.25
2019-01-02T22:31:09.034Z,98124.97
2019-01-02T22:33:38.500Z,98121.47
2019-01-02T22:36:08.478Z,98125.16
2019-01-02T22:38:38.044Z,98123.23
2019-01-02T22:41:07.720Z,98132.48
2019-01-02T22:43:37.222Z,98125.44
2019-01-02T22:46:06.726Z,98132.75
2019-01-02T22:48:36.217Z,98133.56
2019-01-02T22:51:05.734Z,98131.61
2019-01-02T22:53:35.230Z,98131.08
2019-01-02T22:56:04.705Z,98124.77
2019-01-02T22:58:34.196Z,98129.14
2019-01-02T23:01:05.231Z,98134.81
2019-01-02T23:03:42.304Z,98130.48
2019-01-02T23:06:25.484Z,98131.77
2019-01-02T23:09:14.966Z,98129.62
2019-01-02T23:11:48.743Z,98121.88
2019-01-02T23:14:19.813Z,98125.06
2019-01-02T23:16:56.968Z,98131.10
2019-01-02T23:19:28.035Z,98136.03
2019-01-02T23:22:14.134Z,98135.36
2019-01-02T23:24:50.964Z,98143.05
2019-01-02T23:27:21.999Z,98131.13
2019-01-02T23:30:08.909Z,98134.24
2019-01-02T23:32:42.677Z,98141.29
2019-01-02T23:35:22.350Z,98133.05
2019-01-02T23:37:59.697Z,98126.48
2019-01-02T23:40:35.231Z,98117.01
2019-01-02T23:43:22.720Z,98103.51
2019-01-02T23:45:53.792Z,98105.47
2019-01-02T23:48:36.735Z,98104.60
2019-01-02T23:51:20.132Z,98106.16
2019-01-02T23:53:53.906Z,98105.89
2019-01-02T23:59:07.851Z,98105.98
